createdAt,value
2023-03-07T00:00:51.606Z,90.20
2023-03-07T00:03:20.701Z,90.10
2023-03-07T00:05:48.866Z,90.10
2023-03-07T00:08:17.045Z,89.90
2023-03-07T00:10:45.715Z,90.10
2023-03-07T00:13:14.045Z,90.10
2023-03-07T00:15:44.009Z,90.10
2023-03-07T00:18:11.881Z,90.10
2023-03-07T00:20:39.722Z,90.00
2023-03-07T00:23:07.607Z,90.10
2023-03-07T00:25:35.465Z,90.00
2023-03-07T00:28:03.270Z,90.10
2023-03-07T00:30:31.414Z,90.20
2023-03-07T00:33:00.668Z,89.80
2023-03-07T00:35:28.680Z,90.20
2023-03-07T00:37:56.544Z,90.00
2023-03-07T00:40:24.966Z,90.40
2023-03-07T00:42:52.795Z,90.20
2023-03-07T00:45:20.668Z,90.30
2023-03-07T00:47:48.586Z,90.20
2023-03-07T00:50:18.231Z,90.20
2023-03-07T00:52:46.234Z,90.20
2023-03-07T00:55:14.126Z,90.20
2023-03-07T00:57:41.983Z,90.20
2023-03-07T01:00:11.858Z,90.20
2023-03-07T01:02:39.713Z,90.30
2023-03-07T01:05:08.161Z,90.20
2023-03-07T01:07:37.930Z,90.30
2023-03-07T01:10:06.705Z,90.30
2023-03-07T01:12:34.526Z,90.40
2023-03-07T01:15:05.208Z,90.30
2023-03-07T01:17:34.193Z,90.30
2023-03-07T01:20:02.470Z,90.30
2023-03-07T01:22:32.282Z,90.20
2023-03-07T01:25:01.644Z,90.50
2023-03-07T01:27:29.601Z,90.60
2023-03-07T01:29:58.102Z,90.60
2023-03-07T01:32:25.943Z,90.90
2023-03-07T01:34:53.849Z,90.70
2023-03-07T01:37:21.765Z,90.70
2023-03-07T01:39:51.973Z,90.70
2023-03-07T01:42:21.697Z,90.70
2023-03-07T01:45:02.127Z,90.60
2023-03-07T01:47:29.993Z,90.60
2023-03-07T01:49:59.822Z,90.40
2023-03-07T01:52:32.903Z,90.60
2023-03-07T01:55:04.442Z,90.30
2023-03-07T01:57:38.122Z,90.30
2023-03-07T02:00:11.486Z,90.20
2023-03-07T02:02:41.438Z,90.10
2023-03-07T02:05:14.118Z,90.00
2023-03-07T02:07:47.053Z,90.00
2023-03-07T02:10:16.647Z,90.00
2023-03-07T02:12:46.636Z,90.20
2023-03-07T02:15:16.026Z,90.10
2023-03-07T02:17:45.884Z,90.10
2023-03-07T02:20:27.895Z,90.10
2023-03-07T02:22:56.734Z,90.30
2023-03-07T02:25:30.839Z,90.00
2023-03-07T02:28:00.593Z,90.20
2023-03-07T02:30:28.579Z,90.10
2023-03-07T02:32:56.407Z,90.10
2023-03-07T02:35:26.325Z,90.10
2023-03-07T02:37:58.417Z,90.20
2023-03-07T02:40:30.712Z,90.20
2023-03-07T02:43:05.781Z,90.20
2023-03-07T02:45:33.644Z,90.20
2023-03-07T02:48:01.547Z,90.10
2023-03-07T02:50:29.802Z,90.10
2023-03-07T02:52:57.682Z,90.20
2023-03-07T02:55:25.567Z,90.20
2023-03-07T02:57:53.727Z,90.20
2023-03-07T03:00:23.765Z,90.20
2023-03-07T03:02:51.730Z,90.30
2023-03-07T03:05:19.522Z,90.20
2023-03-07T03:07:48.409Z,90.20
2023-03-07T03:10:17.108Z,90.20
2023-03-07T03:12:45.700Z,90.20
2023-03-07T03:15:14.098Z,90.20
2023-03-07T03:17:44.354Z,90.30
2023-03-07T03:20:13.252Z,90.30
2023-03-07T03:22:41.253Z,90.30
2023-03-07T03:25:11.526Z,90.30
2023-03-07T03:27:40.430Z,90.30
2023-03-07T03:30:10.521Z,90.30
2023-03-07T03:32:39.004Z,90.30
2023-03-07T03:35:09.552Z,90.20
2023-03-07T03:37:37.534Z,90.30
2023-03-07T03:40:06.925Z,90.20
2023-03-07T03:42:34.838Z,90.30
2023-03-07T03:45:02.773Z,90.30
2023-03-07T03:47:30.656Z,90.20
2023-03-07T03:49:58.498Z,90.30
2023-03-07T03:52:27.688Z,90.30
2023-03-07T03:54:55.597Z,90.70
2023-03-07T03:57:24.165Z,90.60
2023-03-07T03:59:52.404Z,90.30
2023-03-07T04:02:20.434Z,90.30
2023-03-07T04:04:48.439Z,90.40
2023-03-07T04:07:16.423Z,90.30
2023-03-07T04:09:46.284Z,90.40
2023-03-07T04:12:14.241Z,90.40
2023-03-07T04:14:42.038Z,90.40
2023-03-07T04:17:10.070Z,90.50
2023-03-07T04:19:38.236Z,90.60
2023-03-07T04:22:06.844Z,90.40
2023-03-07T04:24:34.938Z,90.50
2023-03-07T04:27:05.074Z,90.50
2023-03-07T04:29:33.201Z,90.90
2023-03-07T04:32:01.086Z,90.60
2023-03-07T04:34:28.977Z,90.60
2023-03-07T04:36:56.784Z,90.50
2023-03-07T04:39:24.824Z,90.60
2023-03-07T04:41:52.819Z,90.30
2023-03-07T04:44:22.279Z,90.30
2023-03-07T04:46:50.544Z,90.30
2023-03-07T04:49:18.449Z,90.10
2023-03-07T04:51:46.353Z,90.10
2023-03-07T04:54:14.325Z,90.10
2023-03-07T04:56:42.338Z,90.10
2023-03-07T04:59:10.351Z,90.00
2023-03-07T05:01:39.722Z,90.10
2023-03-07T05:04:07.657Z,90.10
2023-03-07T05:06:35.517Z,90.10
2023-03-07T05:09:03.564Z,90.10
2023-03-07T05:11:31.744Z,90.20
2023-03-07T05:13:59.585Z,90.10
2023-03-07T05:16:27.474Z,90.10
2023-03-07T05:18:56.756Z,90.10
2023-03-07T05:21:24.953Z,90.20
2023-03-07T05:23:52.866Z,90.20
2023-03-07T05:26:20.792Z,90.20
2023-03-07T05:28:49.368Z,90.20
2023-03-07T05:31:18.573Z,90.20
2023-03-07T05:33:46.546Z,90.10
2023-03-07T05:36:15.938Z,90.10
2023-03-07T05:38:44.601Z,90.00
2023-03-07T05:41:13.143Z,89.80
2023-03-07T05:43:41.088Z,89.40
2023-03-07T05:46:09.120Z,89.20
2023-03-07T05:48:36.913Z,89.00
2023-03-07T05:51:05.142Z,89.00
2023-03-07T05:53:34.609Z,88.20
2023-03-07T05:56:02.511Z,87.90
2023-03-07T19:08:49.978Z,88.10
2023-03-07T19:11:18.049Z,88.00
2023-03-07T19:13:46.028Z,87.70
2023-03-07T19:16:15.884Z,88.60
2023-03-07T19:18:45.322Z,87.80
2023-03-07T19:21:15.537Z,87.60
2023-03-07T19:23:43.818Z,88.20
2023-03-07T19:26:16.601Z,87.90
2023-03-07T19:28:45.619Z,87.90
2023-03-07T19:31:15.804Z,87.80
2023-03-07T19:33:44.700Z,87.70
2023-03-07T19:36:14.370Z,87.80
2023-03-07T19:38:43.595Z,88.20
2023-03-07T19:41:14.559Z,87.70
2023-03-07T19:43:42.631Z,87.70
2023-03-07T19:46:12.221Z,87.90
2023-03-07T19:48:40.893Z,87.60
2023-03-07T19:51:14.183Z,88.00
2023-03-07T19:53:43.756Z,87.70
2023-03-07T19:56:14.616Z,90.40
2023-03-07T19:58:42.718Z,87.50
2023-03-07T20:01:11.679Z,87.40
2023-03-07T20:03:40.113Z,87.40
2023-03-07T20:06:09.746Z,87.50
2023-03-07T20:08:37.719Z,87.30
2023-03-07T20:11:10.403Z,87.20
2023-03-07T20:13:40.041Z,87.30
2023-03-07T20:16:10.487Z,87.30
2023-03-07T20:18:39.168Z,87.30
2023-03-07T20:21:08.846Z,87.90
2023-03-07T20:23:36.887Z,87.30
2023-03-07T20:26:10.252Z,87.40
2023-03-07T20:28:39.888Z,87.40
2023-03-07T20:31:09.617Z,87.30
2023-03-07T20:33:38.823Z,87.30
2023-03-07T20:36:09.987Z,87.30
2023-03-07T20:38:38.674Z,87.70
2023-03-07T20:41:08.046Z,88.50
2023-03-07T20:43:36.270Z,88.60
2023-03-07T20:46:07.668Z,88.20
2023-03-07T20:48:35.973Z,88.00
2023-03-07T20:51:09.106Z,88.00
2023-03-07T20:53:36.903Z,87.70
2023-03-07T20:56:06.332Z,87.50
2023-03-07T20:58:34.521Z,87.50
2023-03-07T21:01:02.967Z,87.50
2023-03-07T21:03:32.417Z,87.40
2023-03-07T21:06:02.115Z,87.30
2023-03-07T21:08:34.220Z,87.30
2023-03-07T21:11:03.393Z,87.40
2023-03-07T21:13:32.565Z,87.90
2023-03-07T21:16:03.664Z,87.40
2023-03-07T21:18:33.667Z,87.30
2023-03-07T21:21:02.619Z,87.50
2023-03-07T21:23:30.749Z,87.50
2023-03-07T21:26:01.538Z,87.50
2023-03-07T21:28:29.610Z,87.60
2023-03-07T21:31:01.697Z,87.70
2023-03-07T21:33:30.621Z,87.70
2023-03-07T21:35:59.935Z,87.70
2023-03-07T21:40:56.740Z,87.50
2023-03-07T21:43:25.079Z,87.60
2023-03-07T21:45:53.136Z,87.70
2023-03-07T21:48:21.997Z,87.70
2023-03-07T21:50:51.693Z,87.70
2023-03-07T21:53:20.996Z,87.70
2023-03-07T21:55:52.986Z,87.70
2023-03-07T21:58:21.041Z,87.80
2023-03-07T22:00:51.274Z,87.80
2023-03-07T22:03:19.937Z,87.80
2023-03-07T22:05:48.173Z,87.80
2023-03-07T22:08:17.484Z,87.80
2023-03-07T22:10:46.858Z,87.70
2023-03-07T22:13:14.847Z,88.20
2023-03-07T22:15:42.932Z,87.80
2023-03-07T22:18:10.841Z,87.70
2023-03-07T22:20:39.642Z,87.70
2023-03-07T22:23:07.452Z,87.70
2023-03-07T22:25:35.492Z,87.60
2023-03-07T22:28:04.903Z,87.50
2023-03-07T22:30:33.906Z,87.40
2023-03-07T22:33:01.756Z,87.50
2023-03-07T22:35:29.622Z,87.50
2023-03-07T22:37:57.500Z,87.40
2023-03-07T22:40:25.890Z,87.40
2023-03-07T22:42:54.009Z,87.50
2023-03-07T22:45:23.429Z,87.90
2023-03-07T22:47:51.391Z,87.70
2023-03-07T22:50:19.392Z,87.70
2023-03-07T22:52:47.236Z,87.70
2023-03-07T22:55:15.137Z,87.60
2023-03-07T22:57:43.770Z,87.80
2023-03-07T23:00:13.345Z,87.80
2023-03-07T23:02:42.707Z,87.90
2023-03-07T23:05:11.384Z,88.00
2023-03-07T23:07:39.967Z,88.00
2023-03-07T23:10:08.195Z,88.10
2023-03-07T23:15:05.327Z,88.10
2023-03-07T23:20:02.744Z,88.00
2023-03-07T23:22:30.940Z,87.80
2023-03-07T23:24:58.783Z,87.80
2023-03-07T23:27:26.625Z,87.80
2023-03-07T23:29:54.558Z,87.70
2023-03-07T23:32:22.507Z,87.70
2023-03-07T23:34:50.588Z,87.70
2023-03-07T23:37:19.783Z,87.60
2023-03-07T23:39:47.654Z,87.50
2023-03-07T23:42:16.851Z,87.80
2023-03-07T23:44:45.262Z,87.50
2023-03-07T23:47:13.278Z,87.70
2023-03-07T23:49:41.106Z,87.60
2023-03-07T23:52:09.465Z,87.70
2023-03-07T23:54:38.622Z,88.10
2023-03-07T23:57:06.516Z,87.70
2023-03-07T23:59:34.395Z,87.70
